sensor_id;sensor_type;location;lat;lon;timestamp;pressure;altitude;pressure_sealevel;temperature;humidity
21102;BME280;10709;49.006;12.100;2023-05-12T00:01:19;48873.38;;;-146.00;100.00
21102;BME280;10709;49.006;12.100;2023-05-12T00:03:46;48873.38;;;-146.00;100.00
21102;BME280;10709;49.006;12.100;2023-05-12T00:06:13;48855.75;;;-146.00;100.00
21102;BME280;10709;49.006;12.100;2023-05-12T00:08:39;48851.81;;;-146.00;100.00
21102;BME280;10709;49.006;12.100;2023-05-12T00:11:06;48859.66;;;-146.00;100.00
21102;BME280;10709;49.006;12.100;2023-05-12T00:13:32;48859.66;;;-146.00;100.00
21102;BME280;10709;49.006;12.100;2023-05-12T00:15:59;48851.81;;;-146.00;100.00
21102;BME280;10709;49.006;12.100;2023-05-12T00:18:26;48857.69;;;-146.00;100.00
21102;BME280;10709;49.006;12.100;2023-05-12T00:20:54;48851.81;;;-146.00;100.00
21102;BME280;10709;49.006;12.100;2023-05-12T00:23:21;48855.75;;;-146.00;100.00
21102;BME280;10709;49.006;12.100;2023-05-12T00:25:48;48851.81;;;-146.00;100.00
21102;BME280;10709;49.006;12.100;2023-05-12T00:28:18;48844.00;;;-146.00;100.00
21102;BME280;10709;49.006;12.100;2023-05-12T00:30:45;48847.91;;;-146.00;100.00
21102;BME280;10709;49.006;12.100;2023-05-12T00:33:11;48847.91;;;-146.00;100.00
21102;BME280;10709;49.006;12.100;2023-05-12T00:35:38;48851.81;;;-146.00;100.00
21102;BME280;10709;49.006;12.100;2023-05-12T00:38:04;48851.81;;;-146.00;100.00
21102;BME280;10709;49.006;12.100;2023-05-12T00:40:31;48857.69;;;-146.00;100.00
21102;BME280;10709;49.006;12.100;2023-05-12T00:42:58;48855.75;;;-146.00;100.00
21102;BME280;10709;49.006;12.100;2023-05-12T00:45:24;48855.75;;;-146.00;100.00
21102;BME280;10709;49.006;12.100;2023-05-12T00:47:51;48853.78;;;-146.00;100.00
21102;BME280;10709;49.006;12.100;2023-05-12T00:50:19;48851.81;;;-146.00;100.00
21102;BME280;10709;49.006;12.100;2023-05-12T00:52:47;48847.91;;;-146.00;100.00
21102;BME280;10709;49.006;12.100;2023-05-12T00:55:14;48853.78;;;-146.00;100.00
21102;BME280;10709;49.006;12.100;2023-05-12T00:57:42;48851.81;;;-146.00;100.00
21102;BME280;10709;49.006;12.100;2023-05-12T01:00:08;48844.00;;;-146.00;100.00
21102;BME280;10709;49.006;12.100;2023-05-12T01:02:36;48847.91;;;-146.00;100.00
21102;BME280;10709;49.006;12.100;2023-05-12T01:05:03;48853.78;;;-146.00;100.00
21102;BME280;10709;49.006;12.100;2023-05-12T01:07:31;48851.81;;;-146.00;100.00
21102;BME280;10709;49.006;12.100;2023-05-12T01:09:58;48847.91;;;-146.00;100.00
21102;BME280;10709;49.006;12.100;2023-05-12T01:12:26;48851.81;;;-146.00;100.00
21102;BME280;10709;49.006;12.100;2023-05-12T01:14:54;48851.81;;;-146.00;100.00
21102;BME280;10709;49.006;12.100;2023-05-12T01:17:31;48851.81;;;-146.00;100.00
21102;BME280;10709;49.006;12.100;2023-05-12T01:20:05;48844.00;;;-146.00;100.00
21102;BME280;10709;49.006;12.100;2023-05-12T01:22:32;48851.81;;;-146.00;100.00
21102;BME280;10709;49.006;12.100;2023-05-12T01:25:02;48853.78;;;-146.00;100.00
21102;BME280;10709;49.006;12.100;2023-05-12T01:27:30;48851.81;;;-146.00;100.00
21102;BME280;10709;49.006;12.100;2023-05-12T01:30:00;48847.91;;;-146.00;100.00
21102;BME280;10709;49.006;12.100;2023-05-12T01:32:27;48851.81;;;-146.00;100.00
21102;BME280;10709;49.006;12.100;2023-05-12T01:34:56;48855.75;;;-146.00;100.00
21102;BME280;10709;49.006;12.100;2023-05-12T01:37:23;48855.75;;;-146.00;100.00
21102;BME280;10709;49.006;12.100;2023-05-12T01:39:53;48857.69;;;-146.00;100.00
21102;BME280;10709;49.006;12.100;2023-05-12T01:42:20;48849.88;;;-146.00;100.00
21102;BME280;10709;49.006;12.100;2023-05-12T01:44:49;48853.78;;;-146.00;100.00
21102;BME280;10709;49.006;12.100;2023-05-12T01:47:17;48851.81;;;-146.00;100.00
21102;BME280;10709;49.006;12.100;2023-05-12T01:49:44;48855.75;;;-146.00;100.00
21102;BME280;10709;49.006;12.100;2023-05-12T01:52:11;48855.75;;;-146.00;100.00
21102;BME280;10709;49.006;12.100;2023-05-12T01:54:38;48855.75;;;-146.00;100.00
21102;BME280;10709;49.006;12.100;2023-05-12T01:57:04;48851.81;;;-146.00;100.00
21102;BME280;10709;49.006;12.100;2023-05-12T01:59:31;48851.81;;;-146.00;100.00
21102;BME280;10709;49.006;12.100;2023-05-12T02:01:57;48847.91;;;-146.00;100.00
21102;BME280;10709;49.006;12.100;2023-05-12T02:04:26;48853.78;;;-146.00;100.00
21102;BME280;10709;49.006;12.100;2023-05-12T02:06:53;48855.75;;;-146.00;100.00
21102;BME280;10709;49.006;12.100;2023-05-12T02:09:19;48851.81;;;-146.00;100.00
21102;BME280;10709;49.006;12.100;2023-05-12T02:11:48;48859.66;;;-146.00;100.00
21102;BME280;10709;49.006;12.100;2023-05-12T02:14:14;48859.66;;;-146.00;100.00
21102;BME280;10709;49.006;12.100;2023-05-12T02:16:41;48855.75;;;-146.00;100.00
21102;BME280;10709;49.006;12.100;2023-05-12T02:19:08;48855.75;;;-146.00;100.00
21102;BME280;10709;49.006;12.100;2023-05-12T02:21:35;48859.66;;;-146.00;100.00
21102;BME280;10709;49.006;12.100;2023-05-12T02:24:01;48855.75;;;-146.00;100.00
21102;BME280;10709;49.006;12.100;2023-05-12T02:26:28;48851.81;;;-146.00;100.00
21102;BME280;10709;49.006;12.100;2023-05-12T02:28:54;48851.81;;;-146.00;100.00
21102;BME280;10709;49.006;12.100;2023-05-12T02:31:21;48851.81;;;-146.00;100.00
21102;BME280;10709;49.006;12.100;2023-05-12T02:33:47;48853.78;;;-146.00;100.00
21102;BME280;10709;49.006;12.100;2023-05-12T02:36:16;48847.91;;;-146.00;100.00
21102;BME280;10709;49.006;12.100;2023-05-12T02:38:42;48847.91;;;-146.00;100.00
21102;BME280;10709;49.006;12.100;2023-05-12T02:41:11;48844.00;;;-146.00;100.00
21102;BME280;10709;49.006;12.100;2023-05-12T02:43:37;48847.91;;;-146.00;100.00
21102;BME280;10709;49.006;12.100;2023-05-12T02:46:04;48849.88;;;-146.00;100.00
21102;BME280;10709;49.006;12.100;2023-05-12T02:48:31;48847.91;;;-146.00;100.00
21102;BME280;10709;49.006;12.100;2023-05-12T02:50:58;48847.91;;;-146.00;100.00
21102;BME280;10709;49.006;12.100;2023-05-12T02:53:24;48851.81;;;-146.00;100.00
21102;BME280;10709;49.006;12.100;2023-05-12T02:55:52;48849.88;;;-146.00;100.00
21102;BME280;10709;49.006;12.100;2023-05-12T02:58:19;48847.91;;;-146.00;100.00
21102;BME280;10709;49.006;12.100;2023-05-12T03:00:45;48847.91;;;-146.00;100.00
21102;BME280;10709;49.006;12.100;2023-05-12T03:03:19;48847.91;;;-146.00;100.00
21102;BME280;10709;49.006;12.100;2023-05-12T03:05:46;48847.91;;;-146.00;100.00
21102;BME280;10709;49.006;12.100;2023-05-12T03:08:13;48844.00;;;-146.00;100.00
21102;BME280;10709;49.006;12.100;2023-05-12T03:10:40;48851.81;;;-146.00;100.00
21102;BME280;10709;49.006;12.100;2023-05-12T03:13:07;48847.91;;;-146.00;100.00
21102;BME280;10709;49.006;12.100;2023-05-12T03:15:34;48851.81;;;-146.00;100.00
21102;BME280;10709;49.006;12.100;2023-05-12T03:18:01;48851.81;;;-146.00;100.00
21102;BME280;10709;49.006;12.100;2023-05-12T03:20:28;48847.91;;;-146.00;100.00
21102;BME280;10709;49.006;12.100;2023-05-12T03:22:55;48847.91;;;-146.00;100.00
21102;BME280;10709;49.006;12.100;2023-05-12T03:25:21;48844.00;;;-146.00;100.00
21102;BME280;10709;49.006;12.100;2023-05-12T03:27:48;48851.81;;;-146.00;100.00
21102;BME280;10709;49.006;12.100;2023-05-12T03:30:15;48847.91;;;-146.00;100.00
21102;BME280;10709;49.006;12.100;2023-05-12T03:32:41;48847.91;;;-146.00;100.00
21102;BME280;10709;49.006;12.100;2023-05-12T03:35:09;48853.78;;;-146.00;100.00
21102;BME280;10709;49.006;12.100;2023-05-12T03:37:36;48847.91;;;-146.00;100.00
21102;BME280;10709;49.006;12.100;2023-05-12T03:40:03;48847.91;;;-146.00;100.00
21102;BME280;10709;49.006;12.100;2023-05-12T03:42:29;48851.81;;;-146.00;100.00
21102;BME280;10709;49.006;12.100;2023-05-12T03:44:56;48849.88;;;-146.00;100.00
21102;BME280;10709;49.006;12.100;2023-05-12T03:47:22;48853.78;;;-146.00;100.00
21102;BME280;10709;49.006;12.100;2023-05-12T03:49:49;48847.91;;;-146.00;100.00
21102;BME280;10709;49.006;12.100;2023-05-12T03:52:16;48847.91;;;-146.00;100.00
21102;BME280;10709;49.006;12.100;2023-05-12T03:54:42;48855.75;;;-146.00;100.00
21102;BME280;10709;49.006;12.100;2023-05-12T03:57:11;48847.91;;;-146.00;100.00
21102;BME280;10709;49.006;12.100;2023-05-12T03:59:38;48857.69;;;-146.00;100.00
21102;BME280;10709;49.006;12.100;2023-05-12T04:02:04;48855.75;;;-146.00;100.00
21102;BME280;10709;49.006;12.100;2023-05-12T04:04:33;48851.81;;;-146.00;100.00
21102;BME280;10709;49.006;12.100;2023-05-12T04:07:01;48851.81;;;-146.00;100.00
21102;BME280;10709;49.006;12.100;2023-05-12T04:09:30;48851.81;;;-146.00;100.00
21102;BME280;10709;49.006;12.100;2023-05-12T04:11:58;48855.75;;;-146.00;100.00
21102;BME280;10709;49.006;12.100;2023-05-12T04:14:26;48851.81;;;-146.00;100.00
21102;BME280;10709;49.006;12.100;2023-05-12T04:17:07;48855.75;;;-146.00;100.00
21102;BME280;10709;49.006;12.100;2023-05-12T04:19:34;48857.69;;;-146.00;100.00
21102;BME280;10709;49.006;12.100;2023-05-12T04:22:00;48847.91;;;-146.00;100.00
21102;BME280;10709;49.006;12.100;2023-05-12T04:24:27;48855.75;;;-146.00;100.00
21102;BME280;10709;49.006;12.100;2023-05-12T04:26:53;48851.81;;;-146.00;100.00
21102;BME280;10709;49.006;12.100;2023-05-12T04:29:22;48859.66;;;-146.00;100.00
21102;BME280;10709;49.006;12.100;2023-05-12T04:31:49;48859.66;;;-146.00;100.00
21102;BME280;10709;49.006;12.100;2023-05-12T04:34:16;48853.78;;;-146.00;100.00
21102;BME280;10709;49.006;12.100;2023-05-12T04:36:42;48859.66;;;-146.00;100.00
21102;BME280;10709;49.006;12.100;2023-05-12T04:39:09;48851.81;;;-146.00;100.00
21102;BME280;10709;49.006;12.100;2023-05-12T04:41:36;48855.75;;;-146.00;100.00
21102;BME280;10709;49.006;12.100;2023-05-12T04:44:02;48859.66;;;-146.00;100.00
21102;BME280;10709;49.006;12.100;2023-05-12T04:46:29;48859.66;;;-146.00;100.00
21102;BME280;10709;49.006;12.100;2023-05-12T04:48:57;48855.75;;;-146.00;100.00
21102;BME280;10709;49.006;12.100;2023-05-12T04:51:23;48859.66;;;-146.00;100.00
21102;BME280;10709;49.006;12.100;2023-05-12T04:53:50;48855.75;;;-146.00;100.00
21102;BME280;10709;49.006;12.100;2023-05-12T04:56:18;48851.81;;;-146.00;100.00
21102;BME280;10709;49.006;12.100;2023-05-12T04:58:44;48851.81;;;-146.00;100.00
21102;BME280;10709;49.006;12.100;2023-05-12T05:01:11;48867.50;;;-146.00;100.00
21102;BME280;10709;49.006;12.100;2023-05-12T05:03:40;48867.50;;;-146.00;100.00
21102;BME280;10709;49.006;12.100;2023-05-12T05:06:08;48857.69;;;-146.00;100.00
21102;BME280;10709;49.006;12.100;2023-05-12T05:08:34;48859.66;;;-146.00;100.00
21102;BME280;10709;49.006;12.100;2023-05-12T05:11:01;48863.56;;;-146.00;100.00
21102;BME280;10709;49.006;12.100;2023-05-12T05:13:28;48863.56;;;-146.00;100.00
21102;BME280;10709;49.006;12.100;2023-05-12T05:15:55;48859.66;;;-146.00;100.00
21102;BME280;10709;49.006;12.100;2023-05-12T05:18:21;48853.78;;;-146.00;100.00
21102;BME280;10709;49.006;12.100;2023-05-12T05:20:49;48863.56;;;-146.00;100.00
21102;BME280;10709;49.006;12.100;2023-05-12T05:23:23;48898.84;;;-146.00;100.00
21102;BME280;10709;49.006;12.100;2023-05-12T05:25:51;48887.09;;;-146.00;100.00
21102;BME280;10709;49.006;12.100;2023-05-12T05:28:17;48883.16;;;-146.00;100.00
21102;BME280;10709;49.006;12.100;2023-05-12T05:30:44;48875.34;;;-146.00;100.00
21102;BME280;10709;49.006;12.100;2023-05-12T05:33:10;48883.16;;;-146.00;100.00
21102;BME280;10709;49.006;12.100;2023-05-12T05:35:38;48867.50;;;-146.00;100.00
21102;BME280;10709;49.006;12.100;2023-05-12T05:38:05;48867.50;;;-146.00;100.00
21102;BME280;10709;49.006;12.100;2023-05-12T05:40:32;48867.50;;;-146.00;100.00
21102;BME280;10709;49.006;12.100;2023-05-12T05:43:14;48863.56;;;-146.00;100.00
21102;BME280;10709;49.006;12.100;2023-05-12T05:45:42;48863.56;;;-146.00;100.00
21102;BME280;10709;49.006;12.100;2023-05-12T05:48:09;48859.66;;;-146.00;100.00
21102;BME280;10709;49.006;12.100;2023-05-12T05:50:36;48867.50;;;-146.00;100.00
21102;BME280;10709;49.006;12.100;2023-05-12T05:53:03;48855.75;;;-146.00;100.00
21102;BME280;10709;49.006;12.100;2023-05-12T05:55:29;48855.75;;;-146.00;100.00
21102;BME280;10709;49.006;12.100;2023-05-12T05:57:57;48857.69;;;-146.00;100.00
21102;BME280;10709;49.006;12.100;2023-05-12T06:00:24;48857.69;;;-146.00;100.00
21102;BME280;10709;49.006;12.100;2023-05-12T06:02:53;48855.75;;;-146.00;100.00
21102;BME280;10709;49.006;12.100;2023-05-12T06:05:19;48859.66;;;-146.00;100.00
21102;BME280;10709;49.006;12.100;2023-05-12T06:07:46;48855.75;;;-146.00;100.00
21102;BME280;10709;49.006;12.100;2023-05-12T06:10:13;48853.78;;;-146.00;100.00
21102;BME280;10709;49.006;12.100;2023-05-12T06:12:41;48851.81;;;-146.00;100.00
21102;BME280;10709;49.006;12.100;2023-05-12T06:15:09;48847.91;;;-146.00;100.00
21102;BME280;10709;49.006;12.100;2023-05-12T06:17:36;48859.66;;;-146.00;100.00
21102;BME280;10709;49.006;12.100;2023-05-12T06:20:04;48855.75;;;-146.00;100.00
21102;BME280;10709;49.006;12.100;2023-05-12T06:22:31;48851.81;;;-146.00;100.00
21102;BME280;10709;49.006;12.100;2023-05-12T06:25:00;48851.81;;;-146.00;100.00
21102;BME280;10709;49.006;12.100;2023-05-12T06:27:27;48849.88;;;-146.00;100.00
21102;BME280;10709;49.006;12.100;2023-05-12T06:29:53;48855.75;;;-146.00;100.00
21102;BME280;10709;49.006;12.100;2023-05-12T06:32:21;48855.75;;;-146.00;100.00
21102;BME280;10709;49.006;12.100;2023-05-12T06:34:48;48849.88;;;-146.00;100.00
21102;BME280;10709;49.006;12.100;2023-05-12T06:37:17;48855.75;;;-146.00;100.00
21102;BME280;10709;49.006;12.100;2023-05-12T06:39:43;48855.75;;;-146.00;100.00
21102;BME280;10709;49.006;12.100;2023-05-12T06:42:10;48851.81;;;-146.00;100.00
21102;BME280;10709;49.006;12.100;2023-05-12T06:44:36;48844.00;;;-146.00;100.00
21102;BME280;10709;49.006;12.100;2023-05-12T06:47:07;48853.78;;;-146.00;100.00
21102;BME280;10709;49.006;12.100;2023-05-12T06:49:34;48847.91;;;-146.00;100.00
21102;BME280;10709;49.006;12.100;2023-05-12T06:52:03;48851.81;;;-146.00;100.00
21102;BME280;10709;49.006;12.100;2023-05-12T06:54:31;48855.75;;;-146.00;100.00
21102;BME280;10709;49.006;12.100;2023-05-12T06:56:58;48851.81;;;-146.00;100.00
21102;BME280;10709;49.006;12.100;2023-05-12T06:59:27;48847.91;;;-146.00;100.00
21102;BME280;10709;49.006;12.100;2023-05-12T07:01:53;48851.81;;;-146.00;100.00
21102;BME280;10709;49.006;12.100;2023-05-12T07:04:20;48847.91;;;-146.00;100.00
21102;BME280;10709;49.006;12.100;2023-05-12T07:06:46;48851.81;;;-146.00;100.00
21102;BME280;10709;49.006;12.100;2023-05-12T07:09:14;48845.94;;;-146.00;100.00
21102;BME280;10709;49.006;12.100;2023-05-12T07:11:44;48847.91;;;-146.00;100.00
21102;BME280;10709;49.006;12.100;2023-05-12T07:14:10;48847.91;;;-146.00;100.00
21102;BME280;10709;49.006;12.100;2023-05-12T07:16:37;48847.91;;;-146.00;100.00
21102;BME280;10709;49.006;12.100;2023-05-12T07:19:04;48845.94;;;-146.00;100.00
21102;BME280;10709;49.006;12.100;2023-05-12T07:21:31;48851.81;;;-146.00;100.00
21102;BME280;10709;49.006;12.100;2023-05-12T07:23:58;48847.91;;;-146.00;100.00
21102;BME280;10709;49.006;12.100;2023-05-12T07:26:24;48851.81;;;-146.00;100.00
21102;BME280;10709;49.006;12.100;2023-05-12T07:28:53;48844.00;;;-146.00;100.00
21102;BME280;10709;49.006;12.100;2023-05-12T07:31:20;48847.91;;;-146.00;100.00
21102;BME280;10709;49.006;12.100;2023-05-12T07:33:49;48849.88;;;-146.00;100.00
21102;BME280;10709;49.006;12.100;2023-05-12T07:36:15;48849.88;;;-146.00;100.00
21102;BME280;10709;49.006;12.100;2023-05-12T07:38:42;48847.91;;;-146.00;100.00
21102;BME280;10709;49.006;12.100;2023-05-12T07:41:09;48844.00;;;-146.00;100.00
21102;BME280;10709;49.006;12.100;2023-05-12T07:43:39;48849.88;;;-146.00;100.00
21102;BME280;10709;49.006;12.100;2023-05-12T07:46:06;48851.81;;;-146.00;100.00
21102;BME280;10709;49.006;12.100;2023-05-12T07:48:33;48845.94;;;-146.00;100.00
21102;BME280;10709;49.006;12.100;2023-05-12T07:51:06;48847.91;;;-146.00;100.00
21102;BME280;10709;49.006;12.100;2023-05-12T07:53:32;48849.88;;;-146.00;100.00
21102;BME280;10709;49.006;12.100;2023-05-12T07:56:01;48847.91;;;-146.00;100.00
21102;BME280;10709;49.006;12.100;2023-05-12T07:58:28;48851.81;;;-146.00;100.00
21102;BME280;10709;49.006;12.100;2023-05-12T08:00:55;48851.81;;;-146.00;100.00
21102;BME280;10709;49.006;12.100;2023-05-12T08:03:24;48847.91;;;-146.00;100.00
21102;BME280;10709;49.006;12.100;2023-05-12T08:05:51;48844.00;;;-146.00;100.00
21102;BME280;10709;49.006;12.100;2023-05-12T08:08:17;48847.91;;;-146.00;100.00
21102;BME280;10709;49.006;12.100;2023-05-12T08:10:44;48844.00;;;-146.00;100.00
21102;BME280;10709;49.006;12.100;2023-05-12T08:13:11;48844.00;;;-146.00;100.00
21102;BME280;10709;49.006;12.100;2023-05-12T08:15:37;48849.88;;;-146.00;100.00
21102;BME280;10709;49.006;12.100;2023-05-12T08:18:04;48847.91;;;-146.00;100.00
21102;BME280;10709;49.006;12.100;2023-05-12T08:20:30;48847.91;;;-146.00;100.00
21102;BME280;10709;49.006;12.100;2023-05-12T08:22:57;48844.00;;;-146.00;100.00
21102;BME280;10709;49.006;12.100;2023-05-12T08:25:26;48847.91;;;-146.00;100.00
21102;BME280;10709;49.006;12.100;2023-05-12T08:27:55;48847.91;;;-146.00;100.00
21102;BME280;10709;49.006;12.100;2023-05-12T08:30:23;48845.94;;;-146.00;100.00
21102;BME280;10709;49.006;12.100;2023-05-12T08:32:52;48844.00;;;-146.00;100.00
21102;BME280;10709;49.006;12.100;2023-05-12T08:35:19;48844.00;;;-146.00;100.00
21102;BME280;10709;49.006;12.100;2023-05-12T08:37:46;48845.94;;;-146.00;100.00
21102;BME280;10709;49.006;12.100;2023-05-12T08:40:20;48847.91;;;-146.00;100.00
21102;BME280;10709;49.006;12.100;2023-05-12T08:42:53;48849.88;;;-146.00;100.00
21102;BME280;10709;49.006;12.100;2023-05-12T08:45:25;48849.88;;;-146.00;100.00
21102;BME280;10709;49.006;12.100;2023-05-12T08:47:52;48845.94;;;-146.00;100.00
21102;BME280;10709;49.006;12.100;2023-05-12T08:50:21;48853.78;;;-146.00;100.00
21102;BME280;10709;49.006;12.100;2023-05-12T08:52:48;48859.66;;;-146.00;100.00
21102;BME280;10709;49.006;12.100;2023-05-12T08:55:15;48851.81;;;-146.00;100.00
21102;BME280;10709;49.006;12.100;2023-05-12T08:57:43;48844.00;;;-146.00;100.00
21102;BME280;10709;49.006;12.100;2023-05-12T09:00:14;48844.00;;;-146.00;100.00
21102;BME280;10709;49.006;12.100;2023-05-12T09:02:42;48853.78;;;-146.00;100.00
21102;BME280;10709;49.006;12.100;2023-05-12T09:05:20;48842.03;;;-146.00;100.00
21102;BME280;10709;49.006;12.100;2023-05-12T09:07:48;48844.00;;;-146.00;100.00
21102;BME280;10709;49.006;12.100;2023-05-12T09:10:17;48845.94;;;-146.00;100.00
21102;BME280;10709;49.006;12.100;2023-05-12T09:14:36;48853.78;;;-146.00;100.00
21102;BME280;10709;49.006;12.100;2023-05-12T09:16:34;48879.25;;;-146.00;100.00
21102;BME280;10709;49.006;12.100;2023-05-12T09:19:03;48871.41;;;-146.00;100.00
21102;BME280;10709;49.006;12.100;2023-05-12T09:21:32;48875.34;;;-146.00;100.00
21102;BME280;10709;49.006;12.100;2023-05-12T09:24:06;48859.66;;;-146.00;100.00
21102;BME280;10709;49.006;12.100;2023-05-12T09:26:47;48851.81;;;-146.00;100.00
21102;BME280;10709;49.006;12.100;2023-05-12T09:29:14;48855.75;;;-146.00;100.00
21102;BME280;10709;49.006;12.100;2023-05-12T09:31:56;48855.75;;;-146.00;100.00
21102;BME280;10709;49.006;12.100;2023-05-12T09:34:31;48851.81;;;-146.00;100.00
21102;BME280;10709;49.006;12.100;2023-05-12T09:36:59;48847.91;;;-146.00;100.00
21102;BME280;10709;49.006;12.100;2023-05-12T09:39:27;48844.00;;;-146.00;100.00
21102;BME280;10709;49.006;12.100;2023-05-12T09:41:54;48845.94;;;-146.00;100.00
21102;BME280;10709;49.006;12.100;2023-05-12T09:44:24;48855.75;;;-146.00;100.00
21102;BME280;10709;49.006;12.100;2023-05-12T09:46:51;48851.81;;;-146.00;100.00
21102;BME280;10709;49.006;12.100;2023-05-12T09:49:23;48847.91;;;-146.00;100.00
21102;BME280;10709;49.006;12.100;2023-05-12T09:51:57;48847.91;;;-146.00;100.00
21102;BME280;10709;49.006;12.100;2023-05-12T09:56:56;48845.94;;;-146.00;100.00
21102;BME280;10709;49.006;12.100;2023-05-12T09:59:24;48847.91;;;-146.00;100.00
21102;BME280;10709;49.006;12.100;2023-05-12T10:01:58;48845.94;;;-146.00;100.00
21102;BME280;10709;49.006;12.100;2023-05-12T10:04:27;48849.88;;;-146.00;100.00
21102;BME280;10709;49.006;12.100;2023-05-12T10:06:56;48844.00;;;-146.00;100.00
21102;BME280;10709;49.006;12.100;2023-05-12T10:09:31;48844.00;;;-146.00;100.00
21102;BME280;10709;49.006;12.100;2023-05-12T10:12:02;48847.91;;;-146.00;100.00
21102;BME280;10709;49.006;12.100;2023-05-12T10:14:30;48840.06;;;-146.00;100.00
21102;BME280;10709;49.006;12.100;2023-05-12T10:16:58;48847.91;;;-146.00;100.00
21102;BME280;10709;49.006;12.100;2023-05-12T10:19:25;48845.94;;;-146.00;100.00
21102;BME280;10709;49.006;12.100;2023-05-12T10:21:55;48847.91;;;-146.00;100.00
21102;BME280;10709;49.006;12.100;2023-05-12T10:24:25;48859.66;;;-146.00;100.00
21102;BME280;10709;49.006;12.100;2023-05-12T10:26:55;48851.81;;;-146.00;100.00
21102;BME280;10709;49.006;12.100;2023-05-12T10:29:25;48847.91;;;-146.00;100.00
21102;BME280;10709;49.006;12.100;2023-05-12T10:31:58;48847.91;;;-146.00;100.00
21102;BME280;10709;49.006;12.100;2023-05-12T10:34:38;48857.69;;;-146.00;100.00
21102;BME280;10709;49.006;12.100;2023-05-12T10:37:09;48851.81;;;-146.00;100.00
21102;BME280;10709;49.006;12.100;2023-05-12T10:39:46;48875.34;;;-146.00;100.00
21102;BME280;10709;49.006;12.100;2023-05-12T10:42:16;48881.22;;;-146.00;100.00
21102;BME280;10709;49.006;12.100;2023-05-12T10:44:49;48859.66;;;-146.00;100.00
21102;BME280;10709;49.006;12.100;2023-05-12T10:47:17;48871.41;;;-146.00;100.00
21102;BME280;10709;49.006;12.100;2023-05-12T10:49:44;48859.66;;;-146.00;100.00
21102;BME280;10709;49.006;12.100;2023-05-12T10:52:11;48863.56;;;-146.00;100.00
21102;BME280;10709;49.006;12.100;2023-05-12T10:54:41;48865.53;;;-146.00;100.00
21102;BME280;10709;49.006;12.100;2023-05-12T10:57:17;48898.84;;;-146.00;100.00
21102;BME280;10709;49.006;12.100;2023-05-12T10:59:50;48883.16;;;-146.00;100.00
21102;BME280;10709;49.006;12.100;2023-05-12T11:02:22;48902.75;;;-146.00;100.00
21102;BME280;10709;49.006;12.100;2023-05-12T11:04:59;48891.00;;;-146.00;100.00
21102;BME280;10709;49.006;12.100;2023-05-12T11:07:29;48922.34;;;-146.00;100.00
21102;BME280;10709;49.006;12.100;2023-05-12T11:10:00;48902.75;;;-146.00;100.00
21102;BME280;10709;49.006;12.100;2023-05-12T11:12:30;48902.75;;;-146.00;100.00
21102;BME280;10709;49.006;12.100;2023-05-12T11:15:01;48863.56;;;-146.00;100.00
21102;BME280;10709;49.006;12.100;2023-05-12T11:17:28;48859.66;;;-146.00;100.00
21102;BME280;10709;49.006;12.100;2023-05-12T11:20:03;48889.03;;;-146.00;100.00
21102;BME280;10709;49.006;12.100;2023-05-12T11:22:30;48898.84;;;-146.00;100.00
21102;BME280;10709;49.006;12.100;2023-05-12T11:24:57;48902.75;;;-146.00;100.00
21102;BME280;10709;49.006;12.100;2023-05-12T11:27:26;48914.50;;;-146.00;100.00
21102;BME280;10709;49.006;12.100;2023-05-12T11:29:58;48912.56;;;-146.00;100.00
21102;BME280;10709;49.006;12.100;2023-05-12T11:32:25;48902.75;;;-146.00;100.00
21102;BME280;10709;49.006;12.100;2023-05-12T11:34:52;48894.91;;;-146.00;100.00
21102;BME280;10709;49.006;12.100;2023-05-12T11:37:19;48873.38;;;-146.00;100.00
21102;BME280;10709;49.006;12.100;2023-05-12T11:39:47;48891.00;;;-146.00;100.00
21102;BME280;10709;49.006;12.100;2023-05-12T11:42:14;48863.56;;;-146.00;100.00
21102;BME280;10709;49.006;12.100;2023-05-12T11:44:48;48861.63;;;-146.00;100.00
21102;BME280;10709;49.006;12.100;2023-05-12T11:47:16;48859.66;;;-146.00;100.00
21102;BME280;10709;49.006;12.100;2023-05-12T11:49:49;48851.81;;;-146.00;100.00
21102;BME280;10709;49.006;12.100;2023-05-12T11:52:17;48855.75;;;-146.00;100.00
21102;BME280;10709;49.006;12.100;2023-05-12T11:57:28;48857.69;;;-146.00;100.00
21102;BME280;10709;49.006;12.100;2023-05-12T12:00:06;48867.50;;;-146.00;100.00
21102;BME280;10709;49.006;12.100;2023-05-12T12:02:36;48902.75;;;-146.00;100.00
21102;BME280;10709;49.006;12.100;2023-05-12T12:05:15;48871.41;;;-146.00;100.00
21102;BME280;10709;49.006;12.100;2023-05-12T12:07:43;48902.75;;;-146.00;100.00
21102;BME280;10709;49.006;12.100;2023-05-12T12:10:15;48910.59;;;-146.00;100.00
21102;BME280;10709;49.006;12.100;2023-05-12T12:12:42;48930.19;;;-146.00;100.00
21102;BME280;10709;49.006;12.100;2023-05-12T12:15:10;48928.22;;;-146.00;100.00
21102;BME280;10709;49.006;12.100;2023-05-12T12:17:37;48894.91;;;-146.00;100.00
21102;BME280;10709;49.006;12.100;2023-05-12T12:20:06;48918.44;;;-146.00;100.00
21102;BME280;10709;49.006;12.100;2023-05-12T12:22:33;48904.72;;;-146.00;100.00
21102;BME280;10709;49.006;12.100;2023-05-12T12:25:01;48924.31;;;-146.00;100.00
21102;BME280;10709;49.006;12.100;2023-05-12T12:27:28;48941.94;;;-146.00;100.00
21102;BME280;10709;49.006;12.100;2023-05-12T12:29:55;48889.03;;;-146.00;100.00
21102;BME280;10709;49.006;12.100;2023-05-12T12:32:21;48892.97;;;-146.00;100.00